Time;durP1;ratioP1;P1;durP2;ratioP2;P2;SDS_P1;SDS_P2;PMS_P1;PMS_P2;Temp;Humidity;BMP_temperature;BMP_pressure;BME280_temperature;BME280_humidity;BME280_pressure;Samples;Min_cycle;Max_cycle;Signal;HPM_P1;HPM_P2
2022/03/19 00:01:36;;;;;;;0.75;0.75;;;4.50;62.60;;;3.20;47.38;97038.84;5002615;28;20197;-85
2022/03/19 00:04:04;;;;;;;0.75;0.75;;;4.50;62.60;;;3.19;47.31;97042.34;5002425;28;20622;-85
2022/03/19 00:06:39;;;;;;;0.68;0.68;;;4.50;62.50;;;3.14;47.36;97044.41;5028629;28;20212;-85
2022/03/19 00:09:09;;;;;;;0.80;0.80;;;4.40;62.60;;;3.09;47.05;97041.25;5000332;28;20220;-86
2022/03/19 00:11:36;;;;;;;0.70;0.70;;;4.40;62.30;;;3.06;47.18;97040.59;5003772;28;20284;-86
2022/03/19 00:14:04;;;;;;;0.70;0.70;;;4.40;62.30;;;3.01;47.15;97039.09;4996290;28;20283;-85
2022/03/19 00:16:31;;;;;;;0.70;0.70;;;4.30;62.40;;;3.00;47.49;97028.84;5012222;28;20196;-85
2022/03/19 00:18:59;;;;;;;0.70;0.70;;;4.30;62.60;;;2.96;47.33;97033.38;5011873;28;20240;-85
2022/03/19 00:21:27;;;;;;;0.60;0.60;;;4.30;62.50;;;2.95;47.30;97030.88;4995767;28;20231;-85
2022/03/19 00:23:54;;;;;;;0.70;0.70;;;4.30;62.50;;;2.94;47.31;97032.66;4995460;28;20221;-85
2022/03/19 00:26:21;;;;;;;0.80;0.80;;;4.20;62.40;;;2.91;47.39;97021.63;5028539;28;20663;-85
2022/03/19 00:28:48;;;;;;;0.70;0.70;;;4.20;62.50;;;2.87;47.44;97021.78;5013450;28;20632;-85
2022/03/19 00:31:16;;;;;;;0.60;0.60;;;4.20;62.50;;;2.84;47.51;97014.19;5014588;28;20193;-85
2022/03/19 00:33:43;;;;;;;0.70;0.70;;;4.20;62.50;;;2.86;47.38;97030.50;5012981;28;20213;-85
2022/03/19 00:36:10;;;;;;;0.80;0.80;;;4.20;62.50;;;2.85;47.50;97022.81;5015522;28;20279;-85
2022/03/19 00:38:39;;;;;;;0.60;0.60;;;4.10;62.50;;;2.80;47.36;97019.66;5003542;28;20303;-85
2022/03/19 00:41:06;;;;;;;0.70;0.70;;;4.10;62.40;;;2.73;47.38;97011.41;4999380;28;20211;-85
2022/03/19 00:43:34;;;;;;;0.80;0.80;;;4.10;62.40;;;2.67;47.32;97004.00;5004754;28;20260;-85
2022/03/19 00:46:01;;;;;;;0.80;0.80;;;4.10;62.30;;;2.73;47.43;97019.19;5015301;28;20200;-86
2022/03/19 00:48:28;;;;;;;0.70;0.70;;;4.00;62.30;;;2.70;47.41;97014.19;5017359;28;20774;-86
2022/03/19 00:50:55;;;;;;;0.80;0.80;;;4.00;62.30;;;2.55;46.82;96990.00;5018522;28;20208;-85
2022/03/19 00:53:22;;;;;;;0.70;0.70;;;4.00;62.30;;;2.64;46.89;97002.44;5015478;28;20715;-85
2022/03/19 00:55:50;;;;;;;0.68;0.68;;;3.90;62.30;;;2.43;47.13;96978.63;5031821;28;20193;-85
2022/03/19 00:58:17;;;;;;;0.70;0.70;;;3.90;62.30;;;2.57;47.15;97008.88;5015552;28;20213;-85
2022/03/19 01:00:46;;;;;;;0.60;0.60;;;3.90;62.30;;;2.53;47.27;96999.66;5018369;28;20203;-86
2022/03/19 01:03:15;;;;;;;0.70;0.70;;;3.90;62.20;;;2.45;47.18;96996.66;5018569;28;20212;-85
2022/03/19 01:05:43;;;;;;;0.70;0.70;;;3.90;62.30;;;2.54;47.16;97003.91;5034717;28;20235;-85
2022/03/19 01:08:11;;;;;;;0.70;0.70;;;3.80;62.20;;;2.53;47.18;97002.22;5014440;28;20259;-85
2022/03/19 01:10:39;;;;;;;0.63;0.63;;;3.80;62.20;;;2.53;47.14;97007.41;4982204;28;20202;-85
2022/03/19 01:13:07;;;;;;;0.70;0.70;;;3.80;62.20;;;2.51;47.27;97009.25;5033810;28;20242;-85
2022/03/19 01:15:34;;;;;;;0.70;0.70;;;3.80;62.20;;;2.51;47.18;97009.25;5014382;28;20208;-85
2022/03/19 01:18:02;;;;;;;0.70;0.70;;;3.80;62.30;;;2.50;47.20;97003.25;5015005;28;20217;-85
2022/03/19 01:20:30;;;;;;;0.80;0.80;;;3.80;62.30;;;2.44;47.32;96997.59;5008890;28;20224;-84
2022/03/19 01:22:57;;;;;;;0.70;0.70;;;3.80;62.30;;;2.43;47.31;96999.34;4998299;28;20574;-85
2022/03/19 01:25:25;;;;;;;0.77;0.77;;;3.70;62.30;;;2.41;47.21;96990.81;5000985;28;20255;-84
2022/03/19 01:27:53;;;;;;;0.85;0.85;;;3.70;62.30;;;2.43;47.71;96993.31;4982503;28;20671;-85
2022/03/19 01:30:22;;;;;;;0.70;0.70;;;3.70;62.20;;;2.42;47.28;97000.28;5002180;28;20758;-85
2022/03/19 01:32:50;;;;;;;0.80;0.80;;;3.80;62.40;;;2.37;47.31;96999.72;5017962;28;20208;-86
2022/03/19 01:35:20;;;;;;;0.80;0.80;;;3.70;62.30;;;2.22;47.13;96981.53;4983499;28;20223;-85
2022/03/19 01:37:48;;;;;;;0.70;0.70;;;3.70;62.20;;;2.33;47.20;96999.06;5023383;28;20303;-86
2022/03/19 01:40:18;;;;;;;0.70;0.70;;;3.70;62.20;;;2.33;47.26;96995.59;5015260;28;20706;-85
2022/03/19 01:42:48;;;;;;;0.60;0.60;;;3.60;62.20;;;2.28;47.10;96989.88;5034430;28;20207;-85
2022/03/19 01:45:20;;;;;;;0.70;0.70;;;3.60;62.10;;;2.26;47.11;96989.13;5017588;28;20225;-86
2022/03/19 01:47:50;;;;;;;0.80;0.80;;;3.60;62.10;;;2.20;46.90;96987.72;5014586;28;20292;-85
2022/03/19 01:50:19;;;;;;;0.80;0.80;;;3.60;62.10;;;2.14;47.21;96981.16;5020985;28;20224;-85
2022/03/19 01:52:48;;;;;;;0.80;0.80;;;3.50;61.90;;;2.16;46.88;97004.34;5017963;28;20204;-85
2022/03/19 01:55:19;;;;;;;0.70;0.70;;;3.50;61.90;;;2.05;46.71;97000.63;5017381;28;20227;-85
2022/03/19 01:57:47;;;;;;;0.70;0.70;;;3.50;62.00;;;2.00;46.87;96997.47;5029367;28;20267;-85
2022/03/19 02:00:18;;;;;;;0.80;0.80;;;3.40;62.00;;;1.96;46.97;96987.38;4997809;28;20354;-85
2022/03/19 02:02:47;;;;;;;0.80;0.80;;;3.40;62.10;;;1.87;47.11;96981.78;5014203;28;20717;-85
2022/03/19 02:05:17;;;;;;;0.70;0.70;;;3.30;62.10;;;1.84;46.92;96979.38;4997960;28;20217;-85
2022/03/19 02:07:47;;;;;;;0.80;0.80;;;3.30;62.10;;;1.78;47.21;96971.94;4997825;28;20245;-85
2022/03/19 02:10:18;;;;;;;0.70;0.70;;;3.20;62.10;;;1.69;47.30;96968.13;4998770;28;20335;-85
2022/03/19 02:12:45;;;;;;;0.80;0.80;;;3.20;62.20;;;1.65;47.50;96968.38;5005918;28;20197;-84
2022/03/19 02:15:14;;;;;;;0.70;0.70;;;3.10;62.10;;;1.55;47.40;96955.97;5010130;28;20785;-84
2022/03/19 02:17:42;;;;;;;0.80;0.80;;;3.10;62.30;;;1.58;47.44;96963.56;5014104;28;20221;-85
2022/03/19 02:20:10;;;;;;;0.70;0.70;;;3.00;62.20;;;1.58;47.48;96968.72;5016805;28;20252;-85
2022/03/19 02:22:37;;;;;;;0.70;0.70;;;3.00;62.30;;;1.55;47.88;96962.88;5033380;28;20221;-85
2022/03/19 02:27:53;;;;;;;0.70;0.70;;;2.90;62.50;;;1.48;47.44;96953.78;5023127;28;20263;-84
2022/03/19 02:30:20;;;;;;;0.60;0.60;;;2.90;62.30;;;1.37;47.71;96944.06;5017045;28;20259;-85
2022/03/19 02:32:50;;;;;;;0.70;0.70;;;2.90;62.50;;;1.38;47.90;96949.16;4997407;28;20205;-85
2022/03/19 02:35:18;;;;;;;0.80;0.80;;;2.80;62.50;;;1.40;47.54;96946.47;5013508;28;20209;-85
2022/03/19 02:37:49;;;;;;;0.70;0.70;;;2.80;62.50;;;1.35;47.83;96948.47;5014661;28;20316;-85
2022/03/19 02:40:19;;;;;;;0.80;0.80;;;2.80;62.60;;;1.35;47.62;96949.31;5029007;28;20220;-85
2022/03/19 02:42:52;;;;;;;0.60;0.60;;;2.70;62.60;;;1.18;47.89;96923.56;5031121;28;20516;-86
2022/03/19 02:45:22;;;;;;;0.77;0.77;;;2.70;62.80;;;1.30;47.85;96948.72;5032808;28;20683;-85
2022/03/19 02:47:59;;;;;;;0.80;0.80;;;2.70;62.60;;;1.27;47.81;96944.56;5032892;28;20201;-85
2022/03/19 02:50:34;;;;;;;0.60;0.60;;;2.60;62.50;;;1.25;47.89;96946.38;5008868;28;20236;-85
2022/03/19 02:53:06;;;;;;;0.70;0.70;;;2.60;62.50;;;1.18;48.06;96941.63;5013317;28;20186;-85
2022/03/19 02:55:36;;;;;;;0.70;0.70;;;2.60;62.70;;;1.18;47.84;96939.88;4999604;28;20212;-85
2022/03/19 02:58:05;;;;;;;0.70;0.70;;;2.60;62.60;;;1.20;47.82;96942.41;5032310;28;20236;-85
2022/03/19 03:00:34;;;;;;;0.70;0.70;;;2.60;62.60;;;1.09;47.88;96925.72;5030596;28;20181;-85
2022/03/19 03:03:04;;;;;;;0.80;0.80;;;2.60;62.70;;;1.19;47.33;96943.31;4997110;28;20197;-85
2022/03/19 03:05:33;;;;;;;0.65;0.65;;;2.50;62.70;;;1.19;48.19;96941.56;4998478;28;20197;-85
2022/03/19 03:08:02;;;;;;;0.73;0.73;;;2.50;62.80;;;1.19;47.93;96936.38;4996015;28;20288;-85
2022/03/19 03:10:30;;;;;;;0.70;0.70;;;2.50;62.90;;;1.04;47.99;96914.78;5005570;28;20728;-85
2022/03/19 03:12:59;;;;;;;0.70;0.70;;;2.50;62.90;;;1.14;48.12;96937.56;5032630;28;20239;-85
2022/03/19 03:15:26;;;;;;;0.70;0.70;;;2.50;63.00;;;0.99;48.54;96926.28;5032531;28;20327;-85
2022/03/19 03:17:53;;;;;;;0.80;0.80;;;2.50;63.00;;;1.09;48.50;96945.56;5014564;28;20693;-85
2022/03/19 03:20:21;;;;;;;0.70;0.70;;;2.50;63.20;;;1.05;48.72;96941.47;5030045;28;20267;-85
2022/03/19 03:22:48;;;;;;;0.73;0.73;;;2.40;63.20;;;1.03;48.51;96936.38;4996416;28;20303;-85
2022/03/19 03:25:15;;;;;;;0.80;0.80;;;2.40;63.20;;;1.02;48.57;96934.72;4996417;28;20253;-85
2022/03/19 03:27:42;;;;;;;0.60;0.60;;;2.40;63.30;;;1.00;48.37;96923.63;4996496;28;20248;-85
2022/03/19 03:30:10;;;;;;;0.80;0.80;;;2.40;63.30;;;0.99;48.80;96919.38;4998804;28;20321;-85
2022/03/19 03:32:37;;;;;;;0.73;0.73;;;2.30;63.30;;;1.00;48.37;96920.22;5021697;28;20621;-85
2022/03/19 03:35:05;;;;;;;0.70;0.70;;;2.30;63.30;;;0.98;48.34;96924.63;4980397;28;20271;-85
2022/03/19 03:37:32;;;;;;;0.80;0.80;;;2.30;63.30;;;0.93;48.41;96922.31;5013789;28;20196;-85
2022/03/19 03:40:00;;;;;;;0.80;0.80;;;2.30;63.20;;;0.86;48.51;96913.22;4997816;28;20290;-85
2022/03/19 03:42:27;;;;;;;0.70;0.70;;;2.30;63.40;;;0.82;48.17;96914.28;4996468;28;20195;-85
2022/03/19 03:44:58;;;;;;;0.70;0.70;;;2.20;63.30;;;0.73;48.22;96913.88;4996475;28;20217;-85
2022/03/19 03:47:26;;;;;;;0.80;0.80;;;2.20;63.20;;;0.71;48.29;96930.31;5002132;28;20208;-85
2022/03/19 03:49:54;;;;;;;0.80;0.80;;;2.20;63.20;;;0.64;48.27;96927.25;5015855;28;20244;-85
2022/03/19 03:52:23;;;;;;;0.70;0.70;;;2.10;63.10;;;0.57;48.28;96924.13;4997451;28;20209;-85
2022/03/19 03:54:50;;;;;;;0.70;0.70;;;2.10;63.20;;;0.48;48.58;96922.88;4995902;28;20272;-85
2022/03/19 03:57:17;;;;;;;0.80;0.80;;;2.10;63.20;;;0.47;48.53;96928.94;4996091;28;20213;-85
2022/03/19 03:59:44;;;;;;;0.70;0.70;;;2.00;63.20;;;0.40;48.55;96921.59;4988085;28;20667;-85
2022/03/19 04:02:11;;;;;;;0.65;0.65;;;2.00;63.20;;;0.39;48.93;96920.78;4995835;28;20205;-85
2022/03/19 04:04:39;;;;;;;0.70;0.70;;;1.90;63.30;;;0.45;48.92;96929.94;5028479;28;20217;-85
2022/03/19 04:07:06;;;;;;;0.70;0.70;;;1.90;63.40;;;0.47;48.98;96923.78;5000111;28;20263;-85
2022/03/19 04:09:33;;;;;;;0.60;0.60;;;1.90;63.50;;;0.47;48.81;96921.19;4995878;28;20249;-85
2022/03/19 04:12:03;;;;;;;0.60;0.60;;;1.80;63.40;;;0.52;48.90;96925.31;4995916;28;20255;-85
2022/03/19 04:14:30;;;;;;;0.70;0.70;;;1.90;63.50;;;0.48;48.43;96928.03;5015378;28;20255;-85
2022/03/19 04:16:57;;;;;;;0.70;0.70;;;1.80;63.40;;;0.46;48.46;96924.72;5000079;28;20212;-85
2022/03/19 04:19:24;;;;;;;0.80;0.80;;;1.80;63.40;;;0.42;48.40;96922.38;5032304;28;20225;-85
2022/03/19 04:21:51;;;;;;;0.70;0.70;;;1.80;63.30;;;0.35;48.37;96910.69;4999891;28;20193;-85
2022/03/19 04:24:19;;;;;;;0.80;0.80;;;1.80;63.20;;;0.21;48.36;96895.91;5015994;28;20221;-84
2022/03/19 04:26:46;;;;;;;0.60;0.60;;;1.80;63.20;;;0.25;48.56;96908.56;5018392;28;20247;-85
2022/03/19 04:29:13;;;;;;;0.70;0.70;;;1.70;63.20;;;0.19;48.42;96903.72;4999689;28;20297;-85
2022/03/19 04:31:40;;;;;;;0.80;0.80;;;1.70;63.10;;;0.15;48.55;96904.81;5012519;28;20232;-85
2022/03/19 04:34:07;;;;;;;0.80;0.80;;;1.60;63.20;;;0.10;48.77;96904.22;5035282;28;20240;-85
2022/03/19 04:36:37;;;;;;;0.80;0.80;;;1.60;63.20;;;0.08;48.37;96912.00;5003335;28;20244;-85
2022/03/19 04:39:07;;;;;;;0.60;0.60;;;1.60;63.20;;;0.08;48.90;96908.59;5035167;28;20237;-84
2022/03/19 04:41:37;;;;;;;0.80;0.80;;;1.50;63.20;;;0.05;48.74;96901.00;5019163;28;20632;-85
2022/03/19 04:44:06;;;;;;;0.60;0.60;;;1.50;63.30;;;0.07;48.69;96909.50;5018877;28;20224;-85
2022/03/19 04:46:34;;;;;;;0.80;0.80;;;1.50;63.40;;;0.05;48.78;96908.75;5000276;28;20193;-85
2022/03/19 04:49:03;;;;;;;0.70;0.70;;;1.50;63.30;;;0.04;48.62;96913.09;5035072;28;20224;-85
2022/03/19 04:51:37;;;;;;;0.60;0.60;;;1.50;63.40;;;0.06;48.67;96908.69;5018610;28;20299;-85
2022/03/19 04:54:05;;;;;;;0.60;0.60;;;1.50;63.70;;;0.06;48.80;96905.25;5031351;28;20235;-84
2022/03/19 04:56:33;;;;;;;0.70;0.70;;;1.50;63.50;;;0.05;48.61;96908.75;4982934;28;20211;-84
2022/03/19 04:59:03;;;;;;;0.70;0.70;;;1.50;63.50;;;0.03;48.49;96911.41;4998564;28;20229;-84
2022/03/19 05:01:32;;;;;;;0.70;0.70;;;1.40;63.40;;;0.01;48.75;96915.81;5006861;28;20352;-84
2022/03/19 05:04:00;;;;;;;0.70;0.70;;;1.40;63.50;;;-0.01;48.92;96909.91;5006648;28;20709;-85
2022/03/19 05:06:27;;;;;;;0.70;0.70;;;1.40;63.50;;;0.01;48.87;96912.41;5027263;28;20232;-85
2022/03/19 05:11:42;;;;;;;0.80;0.80;;;1.40;63.60;;;-0.02;48.84;96906.47;5005935;28;20189;-84
2022/03/19 05:14:10;;;;;;;0.68;0.68;;;1.40;63.60;;;-0.02;48.60;96908.22;5026226;28;20222;-84
2022/03/19 05:16:37;;;;;;;0.80;0.80;;;1.40;63.60;;;-0.03;48.60;96911.72;5014645;28;20236;-84
2022/03/19 05:19:05;;;;;;;0.70;0.70;;;1.40;63.70;;;-0.08;49.08;96903.38;5031498;28;20229;-85
2022/03/19 05:21:32;;;;;;;0.70;0.70;;;1.40;63.60;;;-0.03;48.63;96917.69;5014552;28;20225;-85
2022/03/19 05:23:59;;;;;;;0.70;0.70;;;1.40;63.70;;;-0.03;48.81;96912.53;5017887;28;20264;-85
2022/03/19 05:26:27;;;;;;;0.80;0.80;;;1.40;63.70;;;-0.04;48.91;96915.19;5025363;28;20231;-84
2022/03/19 05:28:55;;;;;;;0.60;0.60;;;1.40;63.80;;;-0.07;48.55;96915.38;5005994;28;20217;-84
2022/03/19 05:31:42;;;;;;;0.90;0.90;;;1.30;63.70;;;-0.11;48.78;96895.78;5029635;28;20869;-84
2022/03/19 05:36:55;;;;;;;0.73;0.73;;;1.30;63.70;;;-0.05;49.54;96900.63;5014707;28;20197;-84
2022/03/19 05:39:22;;;;;;;0.80;0.80;;;1.30;63.90;;;0.04;49.50;96904.50;5014807;28;20225;-84
2022/03/19 05:41:50;;;;;;;0.80;0.80;;;1.30;64.10;;;0.11;50.00;96893.81;4999048;28;20252;-84
2022/03/19 05:44:17;;;;;;;0.70;0.70;;;1.40;64.30;;;0.29;49.39;96904.09;5010376;28;20732;-85
2022/03/19 05:46:44;;;;;;;0.65;0.65;;;1.40;64.30;;;0.30;49.65;96887.69;5014303;28;20314;-84
2022/03/19 05:49:11;;;;;;;0.82;0.82;;;1.50;64.50;;;0.50;49.37;96903.91;5001106;28;20660;-84
2022/03/19 05:51:38;;;;;;;0.80;0.80;;;1.60;64.60;;;0.63;49.46;96904.91;5009388;28;20231;-84
2022/03/19 05:54:06;;;;;;;0.70;0.70;;;1.60;64.50;;;0.58;49.36;96878.50;5020325;28;20304;-84
2022/03/19 05:56:34;;;;;;;0.70;0.70;;;1.70;64.50;;;0.83;49.06;96906.47;5019868;28;20188;-84
2022/03/19 05:59:01;;;;;;;0.80;0.80;;;1.80;64.50;;;0.92;49.08;96889.63;4998729;28;20707;-84
2022/03/19 06:01:28;;;;;;;0.70;0.70;;;1.80;64.40;;;1.00;49.06;96887.47;4997746;28;20193;-84
2022/03/19 06:03:57;;;;;;;0.77;0.77;;;1.90;64.40;;;1.05;48.71;96874.28;5026889;28;20239;-84
2022/03/19 06:06:25;;;;;;;0.80;0.80;;;2.10;64.40;;;1.23;48.71;96880.19;5015252;28;20201;-84
2022/03/19 06:08:53;;;;;;;0.70;0.70;;;2.10;64.40;;;1.33;49.02;96889.13;5017001;28;20263;-84
2022/03/19 06:11:20;;;;;;;0.80;0.80;;;2.20;64.60;;;1.38;48.54;96889.69;5017168;28;20200;-84
2022/03/19 06:13:48;;;;;;;0.70;0.70;;;2.30;64.50;;;1.27;48.87;96861.03;5027711;28;20221;-84
2022/03/19 06:16:15;;;;;;;0.50;0.50;;;2.30;64.60;;;1.47;48.62;96883.16;4997615;28;20671;-85
2022/03/19 06:18:50;;;;;;;0.60;0.60;;;2.40;64.50;;;1.40;48.90;96868.91;5009454;28;20256;-85
2022/03/19 06:21:25;;;;;;;0.70;0.70;;;2.50;64.50;;;1.55;48.71;96891.31;5013721;28;20235;-84
2022/03/19 06:23:53;;;;;;;0.70;0.70;;;2.50;64.80;;;1.49;48.64;96864.97;5014301;28;20252;-84
2022/03/19 06:26:23;;;;;;;0.70;0.70;;;2.50;64.60;;;1.64;48.71;96881.38;5015138;28;20209;-84
2022/03/19 06:28:51;;;;;;;0.60;0.60;;;2.60;64.70;;;1.68;48.82;96885.44;4999168;28;20280;-84
2022/03/19 06:31:18;;;;;;;0.70;0.70;;;2.60;64.80;;;1.74;49.07;96885.09;5012724;28;20280;-85
2022/03/19 06:33:46;;;;;;;0.70;0.70;;;2.70;64.90;;;1.78;49.00;96881.41;5016209;28;20219;-85
2022/03/19 06:39:00;;;;;;;0.70;0.70;;;2.70;65.00;;;1.89;49.11;96881.63;5012328;28;20255;-86
2022/03/19 06:41:27;;;;;;;0.70;0.70;;;2.80;65.00;;;1.97;48.88;96881.19;5000251;28;20266;-85
2022/03/19 06:43:55;;;;;;;0.80;0.80;;;2.80;65.10;;;2.05;49.06;96875.53;4987009;28;20293;-85
2022/03/19 06:46:23;;;;;;;0.80;0.80;;;2.90;65.20;;;2.17;49.31;96874.00;5031155;28;20206;-85
2022/03/19 06:48:50;;;;;;;0.70;0.70;;;3.00;65.30;;;2.29;49.08;96880.19;5015853;28;20267;-86
2022/03/19 06:51:18;;;;;;;0.70;0.70;;;3.00;65.30;;;2.42;49.24;96875.09;4996909;28;20272;-85
2022/03/19 06:53:47;;;;;;;0.70;0.70;;;3.10;65.20;;;2.58;49.13;96875.84;5016917;28;20268;-85
2022/03/19 06:56:16;;;;;;;0.70;0.70;;;3.20;65.20;;;2.75;49.02;96867.06;4986391;28;20217;-85
2022/03/19 06:58:45;;;;;;;0.70;0.70;;;3.30;65.10;;;2.94;48.81;96865.91;5016617;28;20220;-85
2022/03/19 07:01:15;;;;;;;0.70;0.70;;;3.40;65.00;;;3.08;48.48;96860.69;5000352;28;20193;-85
2022/03/19 07:03:47;;;;;;;0.70;0.70;;;3.60;65.00;;;3.28;48.63;96867.19;5000960;28;20223;-86
2022/03/19 07:06:18;;;;;;;0.70;0.70;;;3.70;64.80;;;3.42;48.09;96870.66;5007684;28;20644;-85
2022/03/19 07:09:06;;;;;;;0.70;0.70;;;3.80;64.70;;;3.59;48.24;96872.16;5007392;28;20235;-86
2022/03/19 07:11:35;;;;;;;0.60;0.60;;;4.00;64.60;;;3.60;48.02;96855.66;4996637;28;20209;-86
2022/03/19 07:14:07;;;;;;;0.70;0.70;;;4.10;64.60;;;3.81;48.19;96874.22;5010698;28;20215;-86
2022/03/19 07:16:34;;;;;;;0.70;0.70;;;4.30;64.60;;;3.89;48.12;96868.50;4996047;28;20236;-86
2022/03/19 07:19:01;;;;;;;0.70;0.70;;;4.40;64.60;;;3.94;47.98;96866.44;5032212;28;20224;-87
2022/03/19 07:21:29;;;;;;;0.60;0.60;;;4.50;64.50;;;3.98;47.99;96857.53;5008505;28;20207;-86
2022/03/19 07:23:55;;;;;;;0.70;0.70;;;4.60;64.40;;;4.06;47.42;96862.19;5017943;28;20597;-87
2022/03/19 07:26:23;;;;;;;0.80;0.80;;;4.70;64.30;;;4.06;48.01;96854.41;5032456;28;20276;-86
2022/03/19 07:28:50;;;;;;;0.60;0.60;;;4.70;64.20;;;4.16;47.86;96866.66;5015848;28;20220;-86
2022/03/19 07:31:17;;;;;;;0.70;0.70;;;4.80;64.10;;;4.23;47.78;96858.47;5011240;28;20197;-86
2022/03/19 07:33:47;;;;;;;0.70;0.70;;;4.90;64.10;;;4.28;47.84;96861.56;5012396;28;20244;-87
2022/03/19 07:36:14;;;;;;;0.60;0.60;;;4.90;64.00;;;4.29;47.38;96847.66;5009096;28;20295;-87
2022/03/19 07:38:41;;;;;;;0.60;0.60;;;5.00;64.00;;;4.48;47.69;96860.22;5014246;28;20642;-86
2022/03/19 07:43:57;;;;;;;0.65;0.65;;;5.10;63.90;;;4.72;47.43;96851.66;5032201;28;20216;-87
2022/03/19 07:46:27;;;;;;;0.60;0.60;;;5.30;64.00;;;4.66;47.02;96826.91;5013941;28;20201;-87
2022/03/19 07:48:55;;;;;;;0.60;0.60;;;5.30;63.80;;;4.90;47.12;96852.13;4998810;28;20221;-87
2022/03/19 07:51:22;;;;;;;0.70;0.70;;;5.40;63.90;;;5.02;47.11;96850.44;5009056;28;20216;-87
2022/03/19 07:53:49;;;;;;;0.60;0.60;;;5.50;63.90;;;4.99;47.13;96830.66;5029066;28;20257;-86
2022/03/19 07:56:16;;;;;;;0.80;0.60;;;5.50;63.70;;;5.21;46.75;96842.13;5012220;28;20201;-87
2022/03/19 07:58:49;;;;;;;0.80;0.80;;;5.60;63.70;;;5.30;46.70;96844.09;5031552;28;20262;-87
2022/03/19 08:01:19;;;;;;;0.60;0.60;;;5.70;63.50;;;5.37;46.66;96839.25;5016505;28;20200;-86
2022/03/19 08:03:47;;;;;;;0.60;0.60;;;5.80;63.50;;;5.47;46.66;96842.00;5008145;28;20267;-86
2022/03/19 08:06:14;;;;;;;0.60;0.60;;;5.90;63.60;;;5.48;46.52;96818.50;5014285;28;20193;-86
2022/03/19 08:08:41;;;;;;;0.70;0.70;;;6.00;63.50;;;5.66;46.33;96826.69;5012039;28;20702;-85
2022/03/19 08:11:10;;;;;;;0.73;0.73;;;6.00;63.20;;;5.75;46.24;96831.22;5003868;28;20218;-86
2022/03/19 08:13:38;;;;;;;0.80;0.80;;;6.10;63.10;;;5.83;46.29;96824.63;4998006;28;20212;-86
2022/03/19 08:16:07;;;;;;;0.70;0.70;;;6.20;63.00;;;5.79;45.99;96811.00;5013314;28;20228;-86
2022/03/19 08:18:35;;;;;;;0.70;0.70;;;6.20;62.90;;;5.93;45.89;96817.78;4999930;28;20754;-87
2022/03/19 08:21:03;;;;;;;0.60;0.60;;;6.30;62.90;;;6.06;45.60;96822.94;4996744;28;21076;-87
2022/03/19 08:23:30;;;;;;;0.60;0.60;;;6.50;63.10;;;6.01;45.85;96796.41;5015199;28;20255;-85
2022/03/19 08:25:58;;;;;;;0.60;0.60;;;6.50;63.20;;;6.22;45.90;96799.94;5011039;28;20204;-87
2022/03/19 08:28:25;;;;;;;0.50;0.50;;;6.50;63.00;;;6.40;45.49;96809.94;5014874;28;20225;-86
2022/03/19 08:30:52;;;;;;;0.60;0.60;;;6.60;63.10;;;6.48;45.46;96798.91;5012367;28;20247;-86
2022/03/19 08:33:19;;;;;;;0.60;0.60;;;6.70;63.10;;;6.48;45.43;96778.03;5028698;28;20220;-87
2022/03/19 08:35:48;;;;;;;0.50;0.50;;;6.80;63.00;;;6.81;45.25;96803.25;5031592;28;20215;-87
2022/03/19 08:41:02;;;;;;;0.60;0.60;;;7.00;62.90;;;7.09;44.91;96806.25;5029383;28;20224;-86
2022/03/19 08:43:35;;;;;;;0.60;0.60;;;7.20;62.80;;;7.15;44.96;96776.25;4981599;28;20232;-88
2022/03/19 08:46:02;;;;;;;0.50;0.50;;;7.30;62.70;;;7.39;44.39;96790.88;5015127;28;20659;-87
2022/03/19 08:48:29;;;;;;;0.50;0.50;;;7.40;62.70;;;7.46;44.47;96771.97;4994811;28;20225;-86
2022/03/19 08:51:39;;;;;;;0.50;0.50;;;7.50;62.80;;;7.79;44.44;96795.44;4991678;28;20205;-87
2022/03/19 08:53:49;;;;;;;0.60;0.60;;;7.70;62.80;;;7.90;44.67;96784.91;5017721;28;20259;-87
2022/03/19 08:56:16;;;;;;;0.80;0.80;;;7.80;62.60;;;8.04;44.25;96786.34;4990646;28;20212;-87
2022/03/19 08:58:43;;;;;;;0.60;0.60;;;8.00;62.40;;;8.14;43.92;96784.63;5020523;28;20715;-86
2022/03/19 09:01:11;;;;;;;0.60;0.60;;;8.10;62.20;;;8.15;43.95;96781.06;5008154;28;20702;-86
2022/03/19 09:03:38;;;;;;;0.70;0.70;;;8.30;62.10;;;8.14;43.79;96768.09;5033411;28;20307;-86
2022/03/19 09:06:06;;;;;;;0.60;0.60;;;8.40;62.00;;;8.26;43.85;96771.47;5021401;28;20207;-87
2022/03/19 09:08:33;;;;;;;0.60;0.60;;;8.40;61.80;;;8.29;43.52;96777.25;5016920;28;20695;-87
2022/03/19 09:11:00;;;;;;;0.60;0.60;;;8.50;61.70;;;8.36;43.77;96766.28;4999267;28;20243;-86
2022/03/19 09:13:27;;;;;;;0.60;0.60;;;8.60;61.70;;;8.48;43.57;96773.09;5029739;28;20252;-86
2022/03/19 09:15:54;;;;;;;0.60;0.60;;;8.70;61.60;;;8.58;43.51;96766.13;5000604;28;20235;-86
2022/03/19 09:18:22;;;;;;;0.60;0.60;;;8.70;61.50;;;8.70;43.32;96761.56;5000391;28;20232;-86
2022/03/19 09:20:49;;;;;;;0.70;0.70;;;8.80;61.40;;;8.73;43.07;96750.03;5017805;28;20698;-85
2022/03/19 09:23:17;;;;;;;0.60;0.60;;;8.90;61.40;;;8.80;42.79;96751.97;5014304;28;20260;-85
2022/03/19 09:25:44;;;;;;;0.60;0.60;;;9.00;61.30;;;8.96;42.28;96754.06;5015445;28;20721;-86
2022/03/19 09:28:11;;;;;;;0.60;0.60;;;9.10;60.90;;;9.13;41.97;96759.59;5014056;28;20251;-86
2022/03/19 09:30:38;;;;;;;0.60;0.60;;;9.20;60.70;;;9.21;40.98;96767.56;5017506;28;20188;-85
2022/03/19 09:33:06;;;;;;;0.70;0.70;;;9.20;60.00;;;9.31;40.38;96766.75;5013845;28;20208;-86
2022/03/19 09:35:45;;;;;;;0.70;0.70;;;9.40;59.80;;;9.38;40.56;96766.06;5005159;28;20196;-86
2022/03/19 09:38:15;;;;;;;0.70;0.70;;;9.40;59.70;;;9.48;40.77;96762.63;5028237;28;20247;-86
2022/03/19 09:40:43;;;;;;;0.70;0.70;;;9.50;59.70;;;9.52;40.86;96751.75;5011277;28;20320;-85
2022/03/19 09:43:10;;;;;;;0.70;0.70;;;9.60;59.50;;;9.58;40.94;96753.81;4999116;28;20295;-86
2022/03/19 09:45:38;;;;;;;0.65;0.65;;;9.70;59.70;;;9.60;40.23;96753.66;4998134;28;20204;-85
2022/03/19 09:48:06;;;;;;;0.60;0.60;;;9.70;59.00;;;9.65;40.76;96761.09;5005267;28;20213;-86
2022/03/19 09:50:35;;;;;;;0.60;0.60;;;9.80;58.90;;;9.67;40.29;96756.56;4984955;28;20205;-86
2022/03/19 09:53:04;;;;;;;0.60;0.60;;;9.80;58.70;;;9.65;39.99;96754.06;5016769;28;20220;-86
2022/03/19 09:55:34;;;;;;;0.50;0.50;;;9.90;58.20;;;9.63;38.94;96749.91;5013108;28;20205;-86
2022/03/19 09:58:02;;;;;;;0.70;0.70;;;10.00;56.00;;;9.60;38.83;96754.47;5037324;28;20216;-86
2022/03/19 10:00:30;;;;;;;0.60;0.60;;;9.90;57.60;;;9.52;39.86;96738.63;5031105;28;20315;-85
2022/03/19 10:03:01;;;;;;;0.70;0.70;;;10.00;56.00;;;9.52;39.86;96736.03;5003165;28;20294;-85
2022/03/19 10:08:37;;;;;;;0.90;0.90;;;10.00;55.00;;;9.68;39.65;96740.69;5016337;28;20224;-84
2022/03/19 10:11:13;;;;;;;0.70;0.70;;;10.10;56.10;;;9.69;39.48;96736.25;5009220;28;20204;-84
2022/03/19 10:13:46;;;;;;;0.70;0.70;;;10.00;56.00;;;9.61;39.59;96714.19;4997370;28;20208;-86
2022/03/19 10:16:28;;;;;;;1.00;1.00;;;10.10;55.90;;;9.78;39.65;96732.81;5009822;28;20228;-86
2022/03/19 10:18:59;;;;;;;0.80;0.80;;;10.10;55.20;;;9.80;39.57;96737.88;4997537;28;20220;-84
2022/03/19 10:21:30;;;;;;;0.50;0.50;;;10.10;55.80;;;9.66;39.53;96708.53;5010199;28;20593;-86
2022/03/19 10:23:59;;;;;;;0.70;0.70;;;10.10;55.70;;;9.85;39.70;96736.50;5003143;28;20290;-85
2022/03/19 10:26:37;;;;;;;0.70;0.70;;;10.20;56.00;;;9.91;39.26;96733.31;5028447;28;20254;-85
2022/03/19 10:29:09;;;;;;;0.60;0.60;;;10.20;55.70;;;9.96;39.07;96721.56;4981116;28;20687;-86
2022/03/19 10:31:46;;;;;;;0.60;0.60;;;10.20;55.00;;;10.03;39.33;96715.63;5006547;28;20662;-86
2022/03/19 10:34:14;;;;;;;0.60;0.60;;;10.20;54.80;;;10.07;39.03;96716.13;5015361;28;20271;-85
2022/03/19 10:36:46;;;;;;;0.50;0.50;;;10.30;55.40;;;10.01;39.14;96691.34;4981156;28;20228;-86
2022/03/19 10:39:25;;;;;;;0.57;0.57;;;10.30;54.50;;;10.20;39.20;96716.63;4985962;28;20280;-85
2022/03/19 10:41:55;;;;;;;0.55;0.55;;;10.40;54.90;;;10.26;38.72;96704.75;5013906;28;20210;-85
2022/03/19 10:44:26;;;;;;;0.70;0.70;;;10.40;54.70;;;10.31;38.67;96705.13;5012770;28;20253;-85
2022/03/19 10:47:02;;;;;;;0.60;0.60;;;10.50;54.60;;;10.35;38.56;96700.44;4996264;28;20295;-87
2022/03/19 10:49:30;;;;;;;0.60;0.60;;;10.50;54.60;;;10.43;38.31;96708.44;5026305;28;20246;-86
2022/03/19 10:52:01;;;;;;;0.60;0.60;;;10.60;54.70;;;10.53;38.10;96706.59;5013237;28;20201;-85
2022/03/19 10:54:30;;;;;;;0.50;0.50;;;10.70;54.80;;;10.52;38.30;96691.81;5016340;28;20702;-86
2022/03/19 10:56:58;;;;;;;0.70;0.70;;;10.80;54.90;;;10.74;38.30;96700.22;4999282;28;20208;-87
2022/03/19 10:59:30;;;;;;;0.50;0.50;;;10.80;54.90;;;10.77;37.90;96680.75;5000549;28;20231;-84